sensor_id;sensor_type;location;lat;lon;timestamp;P1;durP1;ratioP1;P2;durP2;ratioP2
81150;SDS011;70629;-26.026;27.976;2023-08-07T00:00:13;21.80;;;17.70;;
81150;SDS011;70629;-26.026;27.976;2023-08-07T00:01:48;26.83;;;17.48;;
81150;SDS011;70629;-26.026;27.976;2023-08-07T00:04:57;26.02;;;17.20;;
81150;SDS011;70629;-26.026;27.976;2023-08-07T00:06:33;28.52;;;17.90;;
81150;SDS011;70629;-26.026;27.976;2023-08-07T00:08:08;27.10;;;18.88;;
81150;SDS011;70629;-26.026;27.976;2023-08-07T00:09:43;23.77;;;18.20;;
81150;SDS011;70629;-26.026;27.976;2023-08-07T00:11:18;24.83;;;18.33;;
81150;SDS011;70629;-26.026;27.976;2023-08-07T00:14:27;23.63;;;16.83;;
81150;SDS011;70629;-26.026;27.976;2023-08-07T00:17:37;25.08;;;17.58;;
81150;SDS011;70629;-26.026;27.976;2023-08-07T00:19:12;23.50;;;17.48;;
81150;SDS011;70629;-26.026;27.976;2023-08-07T00:22:21;23.13;;;16.90;;
81150;SDS011;70629;-26.026;27.976;2023-08-07T00:23:56;22.08;;;16.35;;
81150;SDS011;70629;-26.026;27.976;2023-08-07T00:25:31;23.83;;;16.27;;
81150;SDS011;70629;-26.026;27.976;2023-08-07T00:28:43;22.92;;;15.27;;
81150;SDS011;70629;-26.026;27.976;2023-08-07T00:30:18;23.35;;;17.75;;
81150;SDS011;70629;-26.026;27.976;2023-08-07T00:31:53;22.08;;;16.73;;
81150;SDS011;70629;-26.026;27.976;2023-08-07T00:33:28;21.92;;;16.45;;
81150;SDS011;70629;-26.026;27.976;2023-08-07T00:36:39;23.27;;;16.02;;
81150;SDS011;70629;-26.026;27.976;2023-08-07T00:39:48;19.13;;;16.48;;
81150;SDS011;70629;-26.026;27.976;2023-08-07T00:42:57;23.58;;;16.85;;
81150;SDS011;70629;-26.026;27.976;2023-08-07T00:46:07;21.30;;;16.10;;
81150;SDS011;70629;-26.026;27.976;2023-08-07T00:47:42;20.85;;;17.00;;
81150;SDS011;70629;-26.026;27.976;2023-08-07T00:49:17;24.33;;;16.80;;
81150;SDS011;70629;-26.026;27.976;2023-08-07T00:50:54;24.45;;;18.33;;
81150;SDS011;70629;-26.026;27.976;2023-08-07T00:52:30;21.70;;;17.25;;
81150;SDS011;70629;-26.026;27.976;2023-08-07T00:54:07;25.38;;;17.20;;
81150;SDS011;70629;-26.026;27.976;2023-08-07T00:55:46;25.80;;;18.58;;
81150;SDS011;70629;-26.026;27.976;2023-08-07T00:57:21;25.80;;;18.70;;
81150;SDS011;70629;-26.026;27.976;2023-08-07T00:58:58;21.60;;;15.90;;
81150;SDS011;70629;-26.026;27.976;2023-08-07T01:00:34;22.42;;;17.27;;
81150;SDS011;70629;-26.026;27.976;2023-08-07T01:02:09;25.42;;;19.15;;
81150;SDS011;70629;-26.026;27.976;2023-08-07T01:04:04;23.02;;;18.75;;
81150;SDS011;70629;-26.026;27.976;2023-08-07T01:05:39;23.52;;;18.08;;
81150;SDS011;70629;-26.026;27.976;2023-08-07T01:07:14;23.08;;;18.15;;
81150;SDS011;70629;-26.026;27.976;2023-08-07T01:10:31;23.67;;;18.20;;
81150;SDS011;70629;-26.026;27.976;2023-08-07T01:12:28;22.10;;;17.88;;
81150;SDS011;70629;-26.026;27.976;2023-08-07T01:16:17;21.02;;;15.95;;
81150;SDS011;70629;-26.026;27.976;2023-08-07T01:17:56;23.65;;;16.88;;
81150;SDS011;70629;-26.026;27.976;2023-08-07T01:19:32;21.23;;;16.92;;
81150;SDS011;70629;-26.026;27.976;2023-08-07T01:21:17;24.20;;;15.88;;
81150;SDS011;70629;-26.026;27.976;2023-08-07T01:22:52;25.13;;;15.60;;
81150;SDS011;70629;-26.026;27.976;2023-08-07T01:26:02;17.33;;;12.05;;
81150;SDS011;70629;-26.026;27.976;2023-08-07T01:27:38;17.63;;;14.13;;
81150;SDS011;70629;-26.026;27.976;2023-08-07T01:29:18;22.30;;;16.10;;
81150;SDS011;70629;-26.026;27.976;2023-08-07T01:31:04;19.52;;;14.88;;
81150;SDS011;70629;-26.026;27.976;2023-08-07T01:34:56;21.92;;;17.20;;
81150;SDS011;70629;-26.026;27.976;2023-08-07T01:36:34;19.02;;;14.07;;
81150;SDS011;70629;-26.026;27.976;2023-08-07T01:38:09;20.20;;;15.70;;
81150;SDS011;70629;-26.026;27.976;2023-08-07T01:39:49;24.73;;;15.18;;
81150;SDS011;70629;-26.026;27.976;2023-08-07T01:41:25;22.05;;;17.15;;
81150;SDS011;70629;-26.026;27.976;2023-08-07T01:43:01;24.05;;;17.95;;
81150;SDS011;70629;-26.026;27.976;2023-08-07T01:44:36;19.02;;;15.73;;
81150;SDS011;70629;-26.026;27.976;2023-08-07T01:46:11;22.73;;;16.77;;
81150;SDS011;70629;-26.026;27.976;2023-08-07T01:47:47;20.48;;;15.05;;
81150;SDS011;70629;-26.026;27.976;2023-08-07T01:49:23;26.75;;;17.65;;
81150;SDS011;70629;-26.026;27.976;2023-08-07T01:50:58;25.00;;;18.13;;
81150;SDS011;70629;-26.026;27.976;2023-08-07T01:54:07;19.98;;;16.88;;
81150;SDS011;70629;-26.026;27.976;2023-08-07T01:55:42;24.13;;;17.80;;
81150;SDS011;70629;-26.026;27.976;2023-08-07T01:58:52;26.23;;;18.25;;
81150;SDS011;70629;-26.026;27.976;2023-08-07T02:00:26;26.10;;;19.48;;
81150;SDS011;70629;-26.026;27.976;2023-08-07T02:02:01;26.00;;;18.77;;
81150;SDS011;70629;-26.026;27.976;2023-08-07T02:03:37;24.60;;;20.42;;
81150;SDS011;70629;-26.026;27.976;2023-08-07T02:06:47;23.40;;;17.90;;
81150;SDS011;70629;-26.026;27.976;2023-08-07T02:08:22;23.13;;;17.10;;
81150;SDS011;70629;-26.026;27.976;2023-08-07T02:09:57;19.35;;;15.35;;
81150;SDS011;70629;-26.026;27.976;2023-08-07T02:13:06;23.05;;;16.60;;
81150;SDS011;70629;-26.026;27.976;2023-08-07T02:14:42;23.52;;;15.40;;
81150;SDS011;70629;-26.026;27.976;2023-08-07T02:16:17;23.85;;;17.52;;
81150;SDS011;70629;-26.026;27.976;2023-08-07T02:19:26;19.95;;;15.77;;
81150;SDS011;70629;-26.026;27.976;2023-08-07T02:21:01;21.42;;;15.27;;
81150;SDS011;70629;-26.026;27.976;2023-08-07T02:24:10;17.40;;;15.32;;
81150;SDS011;70629;-26.026;27.976;2023-08-07T02:27:19;24.13;;;15.68;;
81150;SDS011;70629;-26.026;27.976;2023-08-07T02:28:54;22.33;;;16.10;;
81150;SDS011;70629;-26.026;27.976;2023-08-07T02:30:30;23.55;;;18.52;;
81150;SDS011;70629;-26.026;27.976;2023-08-07T02:32:05;24.00;;;18.10;;
81150;SDS011;70629;-26.026;27.976;2023-08-07T02:33:40;26.23;;;19.27;;
81150;SDS011;70629;-26.026;27.976;2023-08-07T02:35:15;22.63;;;17.63;;
81150;SDS011;70629;-26.026;27.976;2023-08-07T02:38:25;18.55;;;16.58;;
81150;SDS011;70629;-26.026;27.976;2023-08-07T02:40:00;21.65;;;15.60;;
81150;SDS011;70629;-26.026;27.976;2023-08-07T02:43:09;21.42;;;17.42;;
81150;SDS011;70629;-26.026;27.976;2023-08-07T02:44:44;19.65;;;16.13;;
81150;SDS011;70629;-26.026;27.976;2023-08-07T02:47:54;21.60;;;15.07;;
81150;SDS011;70629;-26.026;27.976;2023-08-07T02:49:29;26.60;;;14.13;;
81150;SDS011;70629;-26.026;27.976;2023-08-07T02:51:04;21.27;;;14.68;;
81150;SDS011;70629;-26.026;27.976;2023-08-07T02:52:39;20.60;;;15.68;;
81150;SDS011;70629;-26.026;27.976;2023-08-07T02:54:17;21.75;;;16.55;;
81150;SDS011;70629;-26.026;27.976;2023-08-07T02:55:51;22.88;;;14.65;;
81150;SDS011;70629;-26.026;27.976;2023-08-07T02:57:26;17.58;;;14.77;;
81150;SDS011;70629;-26.026;27.976;2023-08-07T03:00:36;20.13;;;14.52;;
81150;SDS011;70629;-26.026;27.976;2023-08-07T03:03:45;20.33;;;14.88;;
81150;SDS011;70629;-26.026;27.976;2023-08-07T03:06:54;19.67;;;11.57;;
81150;SDS011;70629;-26.026;27.976;2023-08-07T03:08:29;21.80;;;13.15;;
81150;SDS011;70629;-26.026;27.976;2023-08-07T03:11:39;17.20;;;13.80;;
81150;SDS011;70629;-26.026;27.976;2023-08-07T03:13:14;17.40;;;13.93;;
81150;SDS011;70629;-26.026;27.976;2023-08-07T03:16:23;16.90;;;12.27;;
81150;SDS011;70629;-26.026;27.976;2023-08-07T03:19:33;17.55;;;13.27;;
81150;SDS011;70629;-26.026;27.976;2023-08-07T03:21:08;19.80;;;12.43;;
81150;SDS011;70629;-26.026;27.976;2023-08-07T03:24:17;20.23;;;11.18;;
81150;SDS011;70629;-26.026;27.976;2023-08-07T03:26:05;17.95;;;12.55;;
81150;SDS011;70629;-26.026;27.976;2023-08-07T03:27:47;18.90;;;13.05;;
81150;SDS011;70629;-26.026;27.976;2023-08-07T03:29:22;18.02;;;13.68;;
81150;SDS011;70629;-26.026;27.976;2023-08-07T03:30:57;18.17;;;13.05;;
81150;SDS011;70629;-26.026;27.976;2023-08-07T03:34:06;19.20;;;13.25;;
81150;SDS011;70629;-26.026;27.976;2023-08-07T03:35:41;19.45;;;14.25;;
81150;SDS011;70629;-26.026;27.976;2023-08-07T03:37:16;18.20;;;14.20;;
81150;SDS011;70629;-26.026;27.976;2023-08-07T03:38:51;20.45;;;13.57;;
81150;SDS011;70629;-26.026;27.976;2023-08-07T03:40:26;23.67;;;15.55;;
81150;SDS011;70629;-26.026;27.976;2023-08-07T03:43:35;17.38;;;13.52;;
81150;SDS011;70629;-26.026;27.976;2023-08-07T03:46:44;19.08;;;13.07;;
81150;SDS011;70629;-26.026;27.976;2023-08-07T03:48:19;18.65;;;14.07;;
81150;SDS011;70629;-26.026;27.976;2023-08-07T03:49:54;19.65;;;14.80;;
81150;SDS011;70629;-26.026;27.976;2023-08-07T03:51:29;22.38;;;15.35;;
81150;SDS011;70629;-26.026;27.976;2023-08-07T03:53:06;23.40;;;15.50;;
81150;SDS011;70629;-26.026;27.976;2023-08-07T03:54:41;18.35;;;13.95;;
81150;SDS011;70629;-26.026;27.976;2023-08-07T03:56:16;22.35;;;15.23;;
81150;SDS011;70629;-26.026;27.976;2023-08-07T03:59:25;21.67;;;14.05;;
81150;SDS011;70629;-26.026;27.976;2023-08-07T04:01:00;20.33;;;14.05;;
81150;SDS011;70629;-26.026;27.976;2023-08-07T04:04:09;19.52;;;12.20;;
81150;SDS011;70629;-26.026;27.976;2023-08-07T04:07:18;19.40;;;12.90;;
81150;SDS011;70629;-26.026;27.976;2023-08-07T04:08:53;23.13;;;14.10;;
81150;SDS011;70629;-26.026;27.976;2023-08-07T04:10:28;25.10;;;14.75;;
81150;SDS011;70629;-26.026;27.976;2023-08-07T04:12:03;23.02;;;15.57;;
81150;SDS011;70629;-26.026;27.976;2023-08-07T04:13:38;25.85;;;14.52;;
81150;SDS011;70629;-26.026;27.976;2023-08-07T04:15:13;25.33;;;15.68;;
81150;SDS011;70629;-26.026;27.976;2023-08-07T04:16:48;24.02;;;15.88;;
81150;SDS011;70629;-26.026;27.976;2023-08-07T04:18:23;23.23;;;15.80;;
81150;SDS011;70629;-26.026;27.976;2023-08-07T04:19:58;27.23;;;14.70;;
81150;SDS011;70629;-26.026;27.976;2023-08-07T04:21:33;19.85;;;15.20;;
81150;SDS011;70629;-26.026;27.976;2023-08-07T04:23:08;26.58;;;13.70;;
81150;SDS011;70629;-26.026;27.976;2023-08-07T04:24:43;21.55;;;15.27;;
81150;SDS011;70629;-26.026;27.976;2023-08-07T04:26:18;21.48;;;15.50;;
81150;SDS011;70629;-26.026;27.976;2023-08-07T04:27:53;20.20;;;13.82;;
81150;SDS011;70629;-26.026;27.976;2023-08-07T04:29:28;18.10;;;13.25;;
81150;SDS011;70629;-26.026;27.976;2023-08-07T04:32:37;22.58;;;13.57;;
81150;SDS011;70629;-26.026;27.976;2023-08-07T04:35:47;21.52;;;13.50;;
81150;SDS011;70629;-26.026;27.976;2023-08-07T04:37:22;30.52;;;15.70;;
81150;SDS011;70629;-26.026;27.976;2023-08-07T04:38:57;30.38;;;18.38;;
81150;SDS011;70629;-26.026;27.976;2023-08-07T04:42:07;28.13;;;16.23;;
81150;SDS011;70629;-26.026;27.976;2023-08-07T04:45:20;23.65;;;15.75;;
81150;SDS011;70629;-26.026;27.976;2023-08-07T04:48:30;24.05;;;16.50;;
81150;SDS011;70629;-26.026;27.976;2023-08-07T04:51:39;21.92;;;14.35;;
81150;SDS011;70629;-26.026;27.976;2023-08-07T04:54:48;29.80;;;14.90;;
81150;SDS011;70629;-26.026;27.976;2023-08-07T04:56:23;27.75;;;14.02;;
81150;SDS011;70629;-26.026;27.976;2023-08-07T04:57:58;26.08;;;16.85;;
81150;SDS011;70629;-26.026;27.976;2023-08-07T04:59:34;28.63;;;18.25;;
81150;SDS011;70629;-26.026;27.976;2023-08-07T05:01:09;26.67;;;17.38;;
81150;SDS011;70629;-26.026;27.976;2023-08-07T05:04:18;26.08;;;16.70;;
81150;SDS011;70629;-26.026;27.976;2023-08-07T05:07:34;32.28;;;16.80;;
81150;SDS011;70629;-26.026;27.976;2023-08-07T05:09:09;23.52;;;15.73;;
81150;SDS011;70629;-26.026;27.976;2023-08-07T05:10:44;26.20;;;18.23;;
81150;SDS011;70629;-26.026;27.976;2023-08-07T05:12:19;26.98;;;18.65;;
81150;SDS011;70629;-26.026;27.976;2023-08-07T05:15:28;22.42;;;16.77;;
81150;SDS011;70629;-26.026;27.976;2023-08-07T05:17:05;25.50;;;17.55;;
81150;SDS011;70629;-26.026;27.976;2023-08-07T05:20:14;33.35;;;18.90;;
81150;SDS011;70629;-26.026;27.976;2023-08-07T05:23:24;25.08;;;18.23;;
81150;SDS011;70629;-26.026;27.976;2023-08-07T05:24:58;32.33;;;20.27;;
81150;SDS011;70629;-26.026;27.976;2023-08-07T05:28:08;35.83;;;20.83;;
81150;SDS011;70629;-26.026;27.976;2023-08-07T05:29:43;37.75;;;21.92;;
81150;SDS011;70629;-26.026;27.976;2023-08-07T05:31:18;27.52;;;21.73;;
81150;SDS011;70629;-26.026;27.976;2023-08-07T05:32:53;31.58;;;22.10;;
81150;SDS011;70629;-26.026;27.976;2023-08-07T05:34:28;30.92;;;22.10;;
81150;SDS011;70629;-26.026;27.976;2023-08-07T05:36:03;40.22;;;24.35;;
81150;SDS011;70629;-26.026;27.976;2023-08-07T05:37:40;36.67;;;23.10;;
81150;SDS011;70629;-26.026;27.976;2023-08-07T05:39:14;31.45;;;23.50;;
81150;SDS011;70629;-26.026;27.976;2023-08-07T05:40:49;28.73;;;21.13;;
81150;SDS011;70629;-26.026;27.976;2023-08-07T05:42:24;40.80;;;22.95;;
81150;SDS011;70629;-26.026;27.976;2023-08-07T05:43:59;34.25;;;23.52;;
81150;SDS011;70629;-26.026;27.976;2023-08-07T05:45:34;34.38;;;23.02;;
81150;SDS011;70629;-26.026;27.976;2023-08-07T05:47:09;38.25;;;24.50;;
81150;SDS011;70629;-26.026;27.976;2023-08-07T05:50:18;29.10;;;17.85;;
81150;SDS011;70629;-26.026;27.976;2023-08-07T05:51:53;33.20;;;22.20;;
81150;SDS011;70629;-26.026;27.976;2023-08-07T05:53:29;33.88;;;22.08;;
81150;SDS011;70629;-26.026;27.976;2023-08-07T05:55:03;27.83;;;19.63;;
81150;SDS011;70629;-26.026;27.976;2023-08-07T05:56:40;28.13;;;19.85;;
81150;SDS011;70629;-26.026;27.976;2023-08-07T05:58:15;30.83;;;21.15;;
81150;SDS011;70629;-26.026;27.976;2023-08-07T05:59:50;32.63;;;19.48;;
81150;SDS011;70629;-26.026;27.976;2023-08-07T06:01:25;30.50;;;21.38;;
81150;SDS011;70629;-26.026;27.976;2023-08-07T06:03:04;28.55;;;18.52;;
81150;SDS011;70629;-26.026;27.976;2023-08-07T06:04:39;34.67;;;20.27;;
81150;SDS011;70629;-26.026;27.976;2023-08-07T06:06:14;31.17;;;22.42;;
81150;SDS011;70629;-26.026;27.976;2023-08-07T06:07:50;32.13;;;21.40;;
81150;SDS011;70629;-26.026;27.976;2023-08-07T06:09:25;27.23;;;20.33;;
81150;SDS011;70629;-26.026;27.976;2023-08-07T06:12:37;27.52;;;16.83;;
81150;SDS011;70629;-26.026;27.976;2023-08-07T06:15:49;26.67;;;18.40;;
81150;SDS011;70629;-26.026;27.976;2023-08-07T06:18:58;29.55;;;17.77;;
81150;SDS011;70629;-26.026;27.976;2023-08-07T06:20:34;30.00;;;20.90;;
81150;SDS011;70629;-26.026;27.976;2023-08-07T06:22:09;31.35;;;19.40;;
81150;SDS011;70629;-26.026;27.976;2023-08-07T06:23:44;32.70;;;21.17;;
81150;SDS011;70629;-26.026;27.976;2023-08-07T06:26:53;26.90;;;17.45;;
81150;SDS011;70629;-26.026;27.976;2023-08-07T06:28:28;26.05;;;20.27;;
81150;SDS011;70629;-26.026;27.976;2023-08-07T06:30:03;24.88;;;18.90;;
81150;SDS011;70629;-26.026;27.976;2023-08-07T06:31:39;28.63;;;17.40;;
81150;SDS011;70629;-26.026;27.976;2023-08-07T06:33:14;27.48;;;19.25;;
81150;SDS011;70629;-26.026;27.976;2023-08-07T06:34:49;26.33;;;20.27;;
81150;SDS011;70629;-26.026;27.976;2023-08-07T06:37:58;26.63;;;17.35;;
81150;SDS011;70629;-26.026;27.976;2023-08-07T06:39:33;27.13;;;19.45;;
81150;SDS011;70629;-26.026;27.976;2023-08-07T06:41:08;30.27;;;20.15;;
81150;SDS011;70629;-26.026;27.976;2023-08-07T06:42:43;28.67;;;18.63;;
81150;SDS011;70629;-26.026;27.976;2023-08-07T06:45:53;21.15;;;15.43;;
81150;SDS011;70629;-26.026;27.976;2023-08-07T06:47:29;24.52;;;17.13;;
81150;SDS011;70629;-26.026;27.976;2023-08-07T06:49:04;24.27;;;15.77;;
81150;SDS011;70629;-26.026;27.976;2023-08-07T06:52:13;23.48;;;15.27;;
81150;SDS011;70629;-26.026;27.976;2023-08-07T06:53:48;27.55;;;19.38;;
81150;SDS011;70629;-26.026;27.976;2023-08-07T06:56:57;30.00;;;19.42;;
81150;SDS011;70629;-26.026;27.976;2023-08-07T06:58:33;31.77;;;20.67;;
81150;SDS011;70629;-26.026;27.976;2023-08-07T07:01:44;28.08;;;19.13;;
81150;SDS011;70629;-26.026;27.976;2023-08-07T07:04:54;29.50;;;20.77;;
81150;SDS011;70629;-26.026;27.976;2023-08-07T07:06:29;29.23;;;21.02;;
81150;SDS011;70629;-26.026;27.976;2023-08-07T07:09:39;28.80;;;18.60;;
81150;SDS011;70629;-26.026;27.976;2023-08-07T07:11:14;29.60;;;19.27;;
81150;SDS011;70629;-26.026;27.976;2023-08-07T07:12:49;30.05;;;19.13;;
81150;SDS011;70629;-26.026;27.976;2023-08-07T07:14:24;25.38;;;17.95;;
81150;SDS011;70629;-26.026;27.976;2023-08-07T07:17:34;28.42;;;19.63;;
81150;SDS011;70629;-26.026;27.976;2023-08-07T07:20:43;28.92;;;18.95;;
81150;SDS011;70629;-26.026;27.976;2023-08-07T07:23:52;31.45;;;19.77;;
81150;SDS011;70629;-26.026;27.976;2023-08-07T07:27:02;28.95;;;18.67;;
81150;SDS011;70629;-26.026;27.976;2023-08-07T07:28:37;30.20;;;18.98;;
81150;SDS011;70629;-26.026;27.976;2023-08-07T07:30:12;29.77;;;20.77;;
81150;SDS011;70629;-26.026;27.976;2023-08-07T07:31:47;26.83;;;19.95;;
81150;SDS011;70629;-26.026;27.976;2023-08-07T07:33:23;28.58;;;18.80;;
81150;SDS011;70629;-26.026;27.976;2023-08-07T07:34:58;26.25;;;18.60;;
81150;SDS011;70629;-26.026;27.976;2023-08-07T07:36:33;22.50;;;17.17;;
81150;SDS011;70629;-26.026;27.976;2023-08-07T07:39:44;24.83;;;16.58;;
81150;SDS011;70629;-26.026;27.976;2023-08-07T07:41:19;22.17;;;14.55;;
81150;SDS011;70629;-26.026;27.976;2023-08-07T07:42:54;24.45;;;17.15;;
81150;SDS011;70629;-26.026;27.976;2023-08-07T07:46:03;23.10;;;16.27;;
81150;SDS011;70629;-26.026;27.976;2023-08-07T07:47:38;26.60;;;16.10;;
81150;SDS011;70629;-26.026;27.976;2023-08-07T07:49:14;24.35;;;15.88;;
81150;SDS011;70629;-26.026;27.976;2023-08-07T07:50:50;25.73;;;15.68;;
81150;SDS011;70629;-26.026;27.976;2023-08-07T07:52:26;26.65;;;15.73;;
81150;SDS011;70629;-26.026;27.976;2023-08-07T07:54:02;22.15;;;15.98;;
81150;SDS011;70629;-26.026;27.976;2023-08-07T07:55:47;23.20;;;15.20;;
81150;SDS011;70629;-26.026;27.976;2023-08-07T07:57:22;22.02;;;15.20;;
81150;SDS011;70629;-26.026;27.976;2023-08-07T07:58:57;20.80;;;15.43;;
81150;SDS011;70629;-26.026;27.976;2023-08-07T08:02:06;19.10;;;14.20;;
81150;SDS011;70629;-26.026;27.976;2023-08-07T08:03:42;17.45;;;14.85;;
81150;SDS011;70629;-26.026;27.976;2023-08-07T08:05:17;23.00;;;15.25;;
81150;SDS011;70629;-26.026;27.976;2023-08-07T08:06:52;21.00;;;13.32;;
81150;SDS011;70629;-26.026;27.976;2023-08-07T08:08:28;18.58;;;13.98;;
81150;SDS011;70629;-26.026;27.976;2023-08-07T08:10:03;17.02;;;11.40;;
81150;SDS011;70629;-26.026;27.976;2023-08-07T08:11:38;16.25;;;10.88;;
81150;SDS011;70629;-26.026;27.976;2023-08-07T08:13:14;15.88;;;8.30;;
81150;SDS011;70629;-26.026;27.976;2023-08-07T08:14:50;9.43;;;7.43;;
81150;SDS011;70629;-26.026;27.976;2023-08-07T08:16:28;14.10;;;6.63;;
81150;SDS011;70629;-26.026;27.976;2023-08-07T08:18:03;9.52;;;6.55;;
81150;SDS011;70629;-26.026;27.976;2023-08-07T08:19:38;12.63;;;6.00;;
81150;SDS011;70629;-26.026;27.976;2023-08-07T08:21:23;11.48;;;6.05;;
81150;SDS011;70629;-26.026;27.976;2023-08-07T08:22:58;17.73;;;7.13;;
81150;SDS011;70629;-26.026;27.976;2023-08-07T08:24:33;12.18;;;6.82;;
81150;SDS011;70629;-26.026;27.976;2023-08-07T08:26:08;17.52;;;8.48;;
81150;SDS011;70629;-26.026;27.976;2023-08-07T08:27:43;15.50;;;7.20;;
81150;SDS011;70629;-26.026;27.976;2023-08-07T08:29:19;12.93;;;8.00;;
81150;SDS011;70629;-26.026;27.976;2023-08-07T08:30:54;17.25;;;7.50;;
81150;SDS011;70629;-26.026;27.976;2023-08-07T08:32:29;14.70;;;8.10;;
81150;SDS011;70629;-26.026;27.976;2023-08-07T08:34:04;11.35;;;6.80;;
81150;SDS011;70629;-26.026;27.976;2023-08-07T08:35:39;9.82;;;6.95;;
81150;SDS011;70629;-26.026;27.976;2023-08-07T08:37:15;13.45;;;7.60;;
81150;SDS011;70629;-26.026;27.976;2023-08-07T08:38:50;13.70;;;7.50;;
81150;SDS011;70629;-26.026;27.976;2023-08-07T08:40:25;15.30;;;10.07;;
81150;SDS011;70629;-26.026;27.976;2023-08-07T08:42:00;13.95;;;7.88;;
81150;SDS011;70629;-26.026;27.976;2023-08-07T08:43:36;19.58;;;9.35;;
81150;SDS011;70629;-26.026;27.976;2023-08-07T08:45:15;12.70;;;8.80;;
81150;SDS011;70629;-26.026;27.976;2023-08-07T08:46:51;14.95;;;7.95;;
81150;SDS011;70629;-26.026;27.976;2023-08-07T08:48:30;20.25;;;8.25;;
81150;SDS011;70629;-26.026;27.976;2023-08-07T08:50:11;16.00;;;8.50;;
81150;SDS011;70629;-26.026;27.976;2023-08-07T08:51:50;11.15;;;8.90;;
81150;SDS011;70629;-26.026;27.976;2023-08-07T08:53:25;14.60;;;7.90;;
81150;SDS011;70629;-26.026;27.976;2023-08-07T08:55:01;23.13;;;9.18;;
81150;SDS011;70629;-26.026;27.976;2023-08-07T08:56:36;12.73;;;9.32;;
81150;SDS011;70629;-26.026;27.976;2023-08-07T08:58:15;13.07;;;8.10;;
81150;SDS011;70629;-26.026;27.976;2023-08-07T08:59:51;12.02;;;8.93;;
81150;SDS011;70629;-26.026;27.976;2023-08-07T09:01:27;18.60;;;7.90;;
81150;SDS011;70629;-26.026;27.976;2023-08-07T09:03:03;10.35;;;7.03;;
81150;SDS011;70629;-26.026;27.976;2023-08-07T09:04:38;10.05;;;6.95;;
81150;SDS011;70629;-26.026;27.976;2023-08-07T09:06:15;15.00;;;8.15;;
81150;SDS011;70629;-26.026;27.976;2023-08-07T09:07:50;10.10;;;7.32;;
81150;SDS011;70629;-26.026;27.976;2023-08-07T09:09:26;11.80;;;6.35;;
81150;SDS011;70629;-26.026;27.976;2023-08-07T09:11:02;12.13;;;6.43;;
81150;SDS011;70629;-26.026;27.976;2023-08-07T09:12:40;10.32;;;5.88;;
81150;SDS011;70629;-26.026;27.976;2023-08-07T09:14:16;14.85;;;6.47;;
81150;SDS011;70629;-26.026;27.976;2023-08-07T09:15:54;11.00;;;5.47;;
81150;SDS011;70629;-26.026;27.976;2023-08-07T09:17:34;9.13;;;5.40;;
81150;SDS011;70629;-26.026;27.976;2023-08-07T09:19:14;12.30;;;6.30;;
81150;SDS011;70629;-26.026;27.976;2023-08-07T09:20:49;10.93;;;5.03;;
81150;SDS011;70629;-26.026;27.976;2023-08-07T09:22:24;11.80;;;4.22;;
81150;SDS011;70629;-26.026;27.976;2023-08-07T09:23:59;23.52;;;8.90;;
81150;SDS011;70629;-26.026;27.976;2023-08-07T09:25:35;12.88;;;5.97;;
81150;SDS011;70629;-26.026;27.976;2023-08-07T09:27:10;41.55;;;18.73;;
81150;SDS011;70629;-26.026;27.976;2023-08-07T09:28:45;14.30;;;6.97;;
81150;SDS011;70629;-26.026;27.976;2023-08-07T09:30:20;8.93;;;4.35;;
81150;SDS011;70629;-26.026;27.976;2023-08-07T09:31:55;8.05;;;4.55;;
81150;SDS011;70629;-26.026;27.976;2023-08-07T09:33:30;10.38;;;5.20;;
81150;SDS011;70629;-26.026;27.976;2023-08-07T09:35:05;19.17;;;11.32;;
81150;SDS011;70629;-26.026;27.976;2023-08-07T09:36:42;8.77;;;4.47;;
81150;SDS011;70629;-26.026;27.976;2023-08-07T09:38:17;8.15;;;4.80;;
81150;SDS011;70629;-26.026;27.976;2023-08-07T09:39:52;15.02;;;8.25;;
81150;SDS011;70629;-26.026;27.976;2023-08-07T09:41:28;9.50;;;4.53;;
81150;SDS011;70629;-26.026;27.976;2023-08-07T09:43:06;22.15;;;12.52;;
81150;SDS011;70629;-26.026;27.976;2023-08-07T09:44:42;11.65;;;6.93;;
81150;SDS011;70629;-26.026;27.976;2023-08-07T09:46:22;6.53;;;5.10;;
81150;SDS011;70629;-26.026;27.976;2023-08-07T09:48:05;9.48;;;5.47;;
81150;SDS011;70629;-26.026;27.976;2023-08-07T09:49:41;7.13;;;4.32;;
81150;SDS011;70629;-26.026;27.976;2023-08-07T09:51:17;10.23;;;4.35;;
81150;SDS011;70629;-26.026;27.976;2023-08-07T09:52:52;7.80;;;4.32;;
81150;SDS011;70629;-26.026;27.976;2023-08-07T09:54:28;7.22;;;4.38;;
81150;SDS011;70629;-26.026;27.976;2023-08-07T09:56:05;8.90;;;4.88;;
81150;SDS011;70629;-26.026;27.976;2023-08-07T09:57:44;7.75;;;4.20;;
81150;SDS011;70629;-26.026;27.976;2023-08-07T09:59:19;6.93;;;3.95;;
81150;SDS011;70629;-26.026;27.976;2023-08-07T10:00:55;8.73;;;3.90;;
81150;SDS011;70629;-26.026;27.976;2023-08-07T10:02:33;7.45;;;4.25;;
81150;SDS011;70629;-26.026;27.976;2023-08-07T10:04:08;7.05;;;4.65;;
81150;SDS011;70629;-26.026;27.976;2023-08-07T10:05:48;10.68;;;5.25;;
81150;SDS011;70629;-26.026;27.976;2023-08-07T10:07:24;9.43;;;4.47;;
81150;SDS011;70629;-26.026;27.976;2023-08-07T10:08:59;7.05;;;3.95;;
81150;SDS011;70629;-26.026;27.976;2023-08-07T10:10:36;6.88;;;4.88;;
81150;SDS011;70629;-26.026;27.976;2023-08-07T10:12:12;9.85;;;4.28;;
81150;SDS011;70629;-26.026;27.976;2023-08-07T10:13:48;8.57;;;4.82;;
81150;SDS011;70629;-26.026;27.976;2023-08-07T10:15:23;5.93;;;3.83;;
81150;SDS011;70629;-26.026;27.976;2023-08-07T10:16:59;12.05;;;4.75;;
81150;SDS011;70629;-26.026;27.976;2023-08-07T10:18:35;6.93;;;4.55;;
81150;SDS011;70629;-26.026;27.976;2023-08-07T10:20:11;9.35;;;5.22;;
81150;SDS011;70629;-26.026;27.976;2023-08-07T10:21:49;9.82;;;6.97;;
81150;SDS011;70629;-26.026;27.976;2023-08-07T10:23:27;45.38;;;15.95;;
81150;SDS011;70629;-26.026;27.976;2023-08-07T10:25:02;15.93;;;6.90;;
81150;SDS011;70629;-26.026;27.976;2023-08-07T10:26:39;8.43;;;5.10;;
81150;SDS011;70629;-26.026;27.976;2023-08-07T10:28:18;10.40;;;6.30;;
81150;SDS011;70629;-26.026;27.976;2023-08-07T10:29:56;10.80;;;6.30;;
81150;SDS011;70629;-26.026;27.976;2023-08-07T10:31:34;10.38;;;6.43;;
81150;SDS011;70629;-26.026;27.976;2023-08-07T10:33:10;7.60;;;5.72;;
81150;SDS011;70629;-26.026;27.976;2023-08-07T10:34:47;14.48;;;6.38;;
81150;SDS011;70629;-26.026;27.976;2023-08-07T10:36:24;9.40;;;6.22;;
81150;SDS011;70629;-26.026;27.976;2023-08-07T10:38:09;11.90;;;6.63;;
81150;SDS011;70629;-26.026;27.976;2023-08-07T10:40:03;9.32;;;6.95;;
81150;SDS011;70629;-26.026;27.976;2023-08-07T10:41:45;14.52;;;7.57;;
81150;SDS011;70629;-26.026;27.976;2023-08-07T10:43:21;16.55;;;7.95;;
81150;SDS011;70629;-26.026;27.976;2023-08-07T10:45:01;12.80;;;6.93;;
81150;SDS011;70629;-26.026;27.976;2023-08-07T10:46:46;13.73;;;8.88;;
81150;SDS011;70629;-26.026;27.976;2023-08-07T10:48:27;14.70;;;8.70;;
81150;SDS011;70629;-26.026;27.976;2023-08-07T10:50:02;12.27;;;8.30;;
81150;SDS011;70629;-26.026;27.976;2023-08-07T10:51:38;14.07;;;8.82;;
81150;SDS011;70629;-26.026;27.976;2023-08-07T10:53:35;14.75;;;9.50;;
81150;SDS011;70629;-26.026;27.976;2023-08-07T10:55:13;15.50;;;9.43;;
81150;SDS011;70629;-26.026;27.976;2023-08-07T10:56:51;11.77;;;7.53;;